createdAt,value
2018-11-06T00:00:28.006Z,29.27
2018-11-06T00:03:01.700Z,28.37
2018-11-06T00:05:29.838Z,31.13
2018-11-06T00:07:58.305Z,28.53
2018-11-06T00:10:26.554Z,29.27
2018-11-06T00:12:54.640Z,30.87
2018-11-06T00:15:22.783Z,28.60
2018-11-06T00:17:51.141Z,30.93
2018-11-06T00:20:19.913Z,29.97
2018-11-06T00:22:48.115Z,29.90
2018-11-06T00:25:16.229Z,28.97
2018-11-06T00:27:44.459Z,26.60
2018-11-06T00:30:13.705Z,28.33
2018-11-06T00:32:42.373Z,30.67
2018-11-06T00:35:11.941Z,31.93
2018-11-06T00:37:41.269Z,29.43
2018-11-06T00:40:09.885Z,31.23
2018-11-06T00:42:38.545Z,30.70
2018-11-06T00:45:10.217Z,30.43
2018-11-06T00:47:38.971Z,31.70
2018-11-06T00:50:08.986Z,31.63
2018-11-06T00:52:37.947Z,30.33
2018-11-06T00:55:07.413Z,31.40
2018-11-06T00:57:36.131Z,31.60
2018-11-06T01:00:06.176Z,32.03
2018-11-06T01:02:34.262Z,31.13
2018-11-06T01:05:02.606Z,30.67
2018-11-06T01:07:30.751Z,31.53
2018-11-06T01:09:58.835Z,28.80
2018-11-06T01:12:26.930Z,28.97
2018-11-06T01:14:55.059Z,27.83
2018-11-06T01:17:23.206Z,27.57
2018-11-06T01:19:51.713Z,28.53
2018-11-06T01:22:19.879Z,29.63
2018-11-06T01:24:48.135Z,31.00
2018-11-06T01:27:16.789Z,27.07
2018-11-06T01:29:44.998Z,26.77
2018-11-06T01:32:13.096Z,26.93
2018-11-06T01:34:41.558Z,28.43
2018-11-06T01:37:09.798Z,27.77
2018-11-06T01:39:37.886Z,28.90
2018-11-06T01:42:06.628Z,30.67
2018-11-06T01:44:34.928Z,28.90
2018-11-06T01:47:03.118Z,26.93
2018-11-06T01:49:31.423Z,28.40
2018-11-06T01:51:59.578Z,32.23
2018-11-06T01:54:28.352Z,31.83
2018-11-06T01:56:56.500Z,31.83
2018-11-06T01:59:26.026Z,30.47
2018-11-06T02:01:55.168Z,30.03
2018-11-06T02:04:24.211Z,32.43
2018-11-06T02:06:52.349Z,31.13
2018-11-06T02:09:20.985Z,27.80
2018-11-06T02:11:49.090Z,29.33
2018-11-06T02:14:17.428Z,28.23
2018-11-06T02:16:46.416Z,29.80
2018-11-06T02:19:14.727Z,28.13
2018-11-06T02:21:43.248Z,29.50
2018-11-06T02:24:11.513Z,27.47
2018-11-06T02:26:40.512Z,29.37
2018-11-06T02:29:08.912Z,32.27
2018-11-06T02:31:37.345Z,31.53
2018-11-06T02:34:06.685Z,31.20
2018-11-06T02:36:34.949Z,30.50
2018-11-06T02:39:04.248Z,31.27
2018-11-06T02:41:32.775Z,30.67
2018-11-06T02:44:01.600Z,30.40
2018-11-06T02:46:29.961Z,30.57
2018-11-06T02:48:58.057Z,29.67
2018-11-06T02:51:27.115Z,30.93
2018-11-06T02:53:55.231Z,31.53
2018-11-06T02:56:23.531Z,30.33
2018-11-06T02:58:51.613Z,30.90
2018-11-06T03:01:20.875Z,29.80
2018-11-06T03:03:48.985Z,30.07
2018-11-06T03:06:17.256Z,29.23
2018-11-06T03:08:45.385Z,29.03
2018-11-06T03:11:13.501Z,29.83
2018-11-06T03:13:43.019Z,29.97
2018-11-06T03:16:11.284Z,29.83
2018-11-06T03:18:39.420Z,30.07
2018-11-06T03:21:07.518Z,30.40
2018-11-06T03:23:35.716Z,31.33
2018-11-06T03:26:04.422Z,29.43
2018-11-06T03:28:33.124Z,28.63
2018-11-06T03:31:01.612Z,30.43
2018-11-06T03:33:29.761Z,31.00
2018-11-06T03:35:58.188Z,31.33
2018-11-06T03:38:26.420Z,31.93
2018-11-06T03:40:54.736Z,31.17
2018-11-06T03:43:22.870Z,29.40
2018-11-06T03:45:50.986Z,32.80
2018-11-06T03:48:19.150Z,30.87
2018-11-06T03:50:48.042Z,33.67
2018-11-06T03:53:16.407Z,30.83
2018-11-06T03:55:44.695Z,30.43
2018-11-06T03:58:12.810Z,27.33
2018-11-06T04:00:41.176Z,28.67
2018-11-06T04:03:09.624Z,30.27
2018-11-06T04:05:37.718Z,30.33
2018-11-06T04:08:06.292Z,29.23
2018-11-06T04:10:34.848Z,29.80
2018-11-06T04:13:03.054Z,28.57
2018-11-06T04:15:31.456Z,30.33
2018-11-06T04:17:59.592Z,30.07
2018-11-06T04:20:27.966Z,30.47
2018-11-06T04:22:56.373Z,27.73
2018-11-06T04:25:24.732Z,34.83
2018-11-06T04:27:53.058Z,33.83
2018-11-06T04:30:21.909Z,30.97
2018-11-06T04:32:50.919Z,31.97
2018-11-06T04:35:20.045Z,29.97
2018-11-06T04:37:48.638Z,30.77
2018-11-06T04:40:16.800Z,30.47
2018-11-06T04:42:45.147Z,31.83
2018-11-06T04:45:13.685Z,29.37
2018-11-06T04:47:42.447Z,29.07
2018-11-06T04:50:10.980Z,31.97
2018-11-06T04:52:39.473Z,31.43
2018-11-06T04:55:09.577Z,30.07
2018-11-06T04:57:38.096Z,30.27
2018-11-06T05:00:08.882Z,28.90
2018-11-06T05:02:37.411Z,31.07
2018-11-06T05:05:06.778Z,30.73
2018-11-06T05:07:35.466Z,31.20
2018-11-06T05:10:04.094Z,30.13
2018-11-06T05:12:33.848Z,30.33
2018-11-06T05:15:02.099Z,29.63
2018-11-06T05:17:30.254Z,30.53
2018-11-06T05:19:58.458Z,29.40
2018-11-06T05:22:26.900Z,29.77
2018-11-06T05:24:55.016Z,31.37
2018-11-06T05:27:23.133Z,27.27
2018-11-06T05:29:51.288Z,30.97
2018-11-06T05:32:19.626Z,32.13
2018-11-06T05:34:47.792Z,30.40
2018-11-06T05:37:15.970Z,28.80
2018-11-06T05:40:01.125Z,28.27
2018-11-06T05:42:29.705Z,30.13
2018-11-06T05:44:57.826Z,26.53
2018-11-06T05:47:26.338Z,27.63
2018-11-06T05:49:54.468Z,25.73
2018-11-06T05:52:22.744Z,26.40
2018-11-06T05:54:51.229Z,26.30
2018-11-06T05:57:19.350Z,25.60
2018-11-06T05:59:47.648Z,26.43
2018-11-06T06:02:15.862Z,27.93
2018-11-06T06:04:44.375Z,27.50
2018-11-06T06:07:13.156Z,26.80
2018-11-06T06:09:41.248Z,27.20
2018-11-06T06:12:09.433Z,27.57
2018-11-06T06:14:37.520Z,27.13
2018-11-06T06:17:06.653Z,29.13
2018-11-06T06:19:34.787Z,27.87
2018-11-06T06:22:02.930Z,27.80
2018-11-06T06:24:31.034Z,28.30
2018-11-06T06:26:59.374Z,28.10
2018-11-06T06:29:27.823Z,27.27
2018-11-06T06:31:56.611Z,27.63
2018-11-06T06:34:24.720Z,26.93
2018-11-06T06:36:52.859Z,26.33
2018-11-06T06:39:21.901Z,27.30
2018-11-06T06:41:50.324Z,26.53
2018-11-06T06:44:18.469Z,26.60
2018-11-06T06:46:47.313Z,27.23
2018-11-06T06:49:15.408Z,26.67
2018-11-06T06:51:44.254Z,25.93
2018-11-06T06:54:12.691Z,25.03
2018-11-06T06:56:40.677Z,24.63
2018-11-06T06:59:08.827Z,24.03
2018-11-06T07:01:37.020Z,23.50
2018-11-06T07:04:05.411Z,23.17
2018-11-06T07:06:33.529Z,23.40
2018-11-06T07:09:01.834Z,25.07
2018-11-06T07:11:29.962Z,24.97
2018-11-06T07:13:58.123Z,25.00
2018-11-06T07:16:27.843Z,23.83
2018-11-06T07:18:55.989Z,23.90
2018-11-06T07:21:24.216Z,24.17
2018-11-06T07:23:52.352Z,24.93
2018-11-06T07:26:20.597Z,24.20
2018-11-06T07:28:48.873Z,23.17
2018-11-06T07:31:16.969Z,23.67
2018-11-06T07:33:45.092Z,23.13
2018-11-06T07:36:13.397Z,24.43
2018-11-06T07:38:41.557Z,24.40
2018-11-06T07:41:10.621Z,24.93
2018-11-06T07:43:38.796Z,22.63
2018-11-06T07:46:07.578Z,21.33
2018-11-06T07:48:35.719Z,22.33
2018-11-06T07:51:03.903Z,21.80
2018-11-06T07:53:32.074Z,23.03
2018-11-06T07:56:00.352Z,22.50
2018-11-06T07:58:29.370Z,22.93
2018-11-06T08:00:58.240Z,21.47
2018-11-06T08:03:26.374Z,21.87
2018-11-06T08:05:54.540Z,22.57
2018-11-06T08:08:23.435Z,23.10
2018-11-06T08:10:51.504Z,20.83
2018-11-06T08:13:19.650Z,21.87
2018-11-06T08:15:48.448Z,23.10
2018-11-06T08:18:16.631Z,20.57
2018-11-06T08:20:46.053Z,21.47
2018-11-06T08:23:14.074Z,20.10
2018-11-06T08:25:43.039Z,21.47
2018-11-06T08:28:11.186Z,20.00
2018-11-06T08:30:39.450Z,20.43
2018-11-06T08:33:07.181Z,19.80
2018-11-06T08:35:35.310Z,18.20
2018-11-06T08:38:03.457Z,20.17
2018-11-06T08:40:31.959Z,19.07
2018-11-06T08:43:00.093Z,19.33
2018-11-06T08:45:28.191Z,18.13
2018-11-06T08:47:56.352Z,18.23
2018-11-06T08:50:24.689Z,15.53
2018-11-06T08:52:52.842Z,16.27
2018-11-06T08:55:21.070Z,13.97
2018-11-06T08:57:49.184Z,20.57
2018-11-06T09:00:18.527Z,16.83
2018-11-06T09:02:47.534Z,16.65
2018-11-06T09:05:16.629Z,15.28
2018-11-06T09:07:45.486Z,18.87
2018-11-06T09:10:14.594Z,18.30
2018-11-06T09:12:42.963Z,15.85
2018-11-06T09:15:13.393Z,16.93
2018-11-06T09:17:41.585Z,17.12
2018-11-06T09:20:11.431Z,16.77
2018-11-06T09:22:39.711Z,18.67
2018-11-06T09:25:10.131Z,16.70
2018-11-06T09:27:38.751Z,15.23
2018-11-06T09:30:12.390Z,16.60
2018-11-06T09:32:40.640Z,16.20
2018-11-06T09:35:10.720Z,15.85
2018-11-06T09:37:41.000Z,16.65
2018-11-06T09:40:12.593Z,14.45
2018-11-06T09:42:40.810Z,15.40
2018-11-06T09:45:10.347Z,16.23
2018-11-06T09:47:39.208Z,15.15
2018-11-06T09:50:12.951Z,13.18
2018-11-06T09:52:42.905Z,14.45
2018-11-06T09:55:11.223Z,14.63
2018-11-06T09:57:39.495Z,16.12
2018-11-06T10:00:12.306Z,13.72
2018-11-06T10:02:40.706Z,13.48
2018-11-06T10:05:09.645Z,15.43
2018-11-06T10:07:38.120Z,13.85
2018-11-06T10:10:09.298Z,13.70
2018-11-06T10:12:37.599Z,13.83
2018-11-06T10:15:08.599Z,13.90
2018-11-06T10:17:38.018Z,14.43
2018-11-06T10:20:07.932Z,13.88
2018-11-06T10:22:37.573Z,12.37
2018-11-06T10:25:06.439Z,14.58
2018-11-06T10:27:35.694Z,13.03
2018-11-06T10:30:04.667Z,12.00
2018-11-06T10:32:33.572Z,12.95
2018-11-06T10:35:01.694Z,13.08
2018-11-06T10:37:30.243Z,13.93
2018-11-06T10:39:59.196Z,12.68
2018-11-06T10:42:28.282Z,12.45
2018-11-06T10:44:56.414Z,12.60
2018-11-06T10:47:24.592Z,14.50
2018-11-06T10:49:52.706Z,13.83
2018-11-06T10:52:20.977Z,12.82
2018-11-06T10:54:50.055Z,11.80
2018-11-06T10:57:18.831Z,12.10
2018-11-06T10:59:46.973Z,11.08
2018-11-06T11:02:20.799Z,12.95
2018-11-06T11:04:49.631Z,12.70
2018-11-06T11:07:18.318Z,11.45
2018-11-06T11:09:46.481Z,12.90
2018-11-06T11:12:14.776Z,13.48
2018-11-06T11:14:42.935Z,10.30
2018-11-06T11:17:11.551Z,10.50
2018-11-06T11:19:39.692Z,10.05
2018-11-06T11:22:08.087Z,10.45
2018-11-06T11:24:36.399Z,10.28
2018-11-06T11:27:06.073Z,10.58
2018-11-06T11:29:34.401Z,10.43
2018-11-06T11:32:02.693Z,9.83
2018-11-06T11:34:30.975Z,15.30
2018-11-06T11:36:59.446Z,10.72
2018-11-06T11:39:27.913Z,10.70
2018-11-06T11:41:56.019Z,10.80
2018-11-06T11:44:24.593Z,9.65
2018-11-06T11:46:52.925Z,10.05
2018-11-06T11:49:21.170Z,10.13
2018-11-06T11:51:49.297Z,10.88
2018-11-06T11:54:17.625Z,9.43
2018-11-06T11:56:45.761Z,10.93
2018-11-06T11:59:14.610Z,10.53
2018-11-06T12:01:42.717Z,10.05
2018-11-06T12:04:11.022Z,9.78
2018-11-06T12:06:40.702Z,10.30
2018-11-06T12:09:09.641Z,9.77
2018-11-06T12:11:38.040Z,10.33
2018-11-06T12:14:06.680Z,9.10
2018-11-06T12:16:35.701Z,9.63
2018-11-06T12:19:04.042Z,10.00
2018-11-06T12:21:32.200Z,9.57
2018-11-06T12:24:01.074Z,10.37
2018-11-06T12:26:29.217Z,9.73
2018-11-06T12:28:57.532Z,8.70
2018-11-06T12:31:25.676Z,9.30
2018-11-06T12:33:53.972Z,8.83
2018-11-06T12:36:22.196Z,7.60
2018-11-06T12:38:50.967Z,8.90
2018-11-06T12:41:19.068Z,8.77
2018-11-06T12:43:47.412Z,8.70
2018-11-06T12:46:16.082Z,8.27
2018-11-06T12:48:45.117Z,8.93
2018-11-06T12:51:13.250Z,8.27
2018-11-06T12:53:41.538Z,8.83
2018-11-06T12:56:09.681Z,8.03
2018-11-06T12:58:37.968Z,9.77
2018-11-06T13:01:06.554Z,10.07
2018-11-06T13:03:34.960Z,10.50
2018-11-06T13:06:03.164Z,10.53
2018-11-06T13:08:31.288Z,10.47
2018-11-06T13:10:59.499Z,12.63
2018-11-06T13:13:27.880Z,10.50
2018-11-06T13:15:57.220Z,10.13
2018-11-06T13:18:25.558Z,10.17
2018-11-06T13:20:53.779Z,10.80
2018-11-06T13:23:22.050Z,10.40
2018-11-06T13:25:50.525Z,11.33
2018-11-06T13:28:19.346Z,11.73
2018-11-06T13:30:47.729Z,11.13
2018-11-06T13:33:16.773Z,10.67
2018-11-06T13:35:45.069Z,11.23
2018-11-06T13:38:13.308Z,10.77
2018-11-06T13:40:41.699Z,10.20
2018-11-06T13:43:09.890Z,11.47
2018-11-06T13:45:39.228Z,9.87
2018-11-06T13:48:07.921Z,10.40
2018-11-06T13:50:36.889Z,10.00
2018-11-06T13:53:05.548Z,10.93
2018-11-06T13:55:34.003Z,9.97
2018-11-06T13:58:02.141Z,11.53
2018-11-06T14:00:31.057Z,11.63
2018-11-06T14:02:59.820Z,11.43
2018-11-06T14:05:28.180Z,10.37
2018-11-06T14:07:56.405Z,12.47
2018-11-06T14:10:24.557Z,11.47
2018-11-06T14:12:52.695Z,10.40
2018-11-06T14:15:22.476Z,12.20
2018-11-06T14:17:50.630Z,11.43
2018-11-06T14:20:18.970Z,13.03
2018-11-06T14:22:47.102Z,11.53
2018-11-06T14:25:16.463Z,11.40
2018-11-06T14:27:44.558Z,10.37
2018-11-06T14:30:15.660Z,10.37
2018-11-06T14:32:44.072Z,9.90
2018-11-06T14:35:14.007Z,10.30
2018-11-06T14:37:42.711Z,9.13
2018-11-06T14:40:12.183Z,9.90
2018-11-06T14:42:40.804Z,11.07
2018-11-06T14:45:11.609Z,10.77
2018-11-06T14:47:40.128Z,11.17
2018-11-06T14:50:09.325Z,10.40
2018-11-06T14:52:37.760Z,10.20
2018-11-06T14:55:08.748Z,10.03
2018-11-06T14:57:37.055Z,11.63
2018-11-06T15:00:11.710Z,11.00
2018-11-06T15:02:42.702Z,11.97
2018-11-06T15:05:10.882Z,12.53
2018-11-06T15:07:39.113Z,13.27
2018-11-06T15:10:08.565Z,13.50
2018-11-06T15:12:37.387Z,13.40
2018-11-06T15:15:08.771Z,13.63
2018-11-06T15:17:38.220Z,15.23
2018-11-06T15:20:09.571Z,14.50
2018-11-06T15:22:38.119Z,14.83
2018-11-06T15:25:07.390Z,16.23
2018-11-06T15:27:35.606Z,16.53
2018-11-06T15:30:04.565Z,14.90
2018-11-06T15:32:32.721Z,15.70
2018-11-06T15:35:01.057Z,16.60
2018-11-06T15:37:29.369Z,15.73
2018-11-06T15:39:58.072Z,17.03
2018-11-06T15:42:26.455Z,17.07
2018-11-06T15:44:54.999Z,18.43
2018-11-06T15:47:23.337Z,18.17
2018-11-06T15:49:51.567Z,18.37
2018-11-06T15:52:19.919Z,17.80
2018-11-06T15:54:48.998Z,18.20
2018-11-06T15:57:18.038Z,17.57
2018-11-06T15:59:46.272Z,16.53
2018-11-06T16:02:14.592Z,17.20
2018-11-06T16:04:46.296Z,18.80
2018-11-06T16:07:17.236Z,19.13
2018-11-06T16:09:46.700Z,18.50
2018-11-06T16:12:15.201Z,18.10
2018-11-06T16:14:43.809Z,17.40
2018-11-06T16:17:11.973Z,17.27
2018-11-06T16:19:40.360Z,18.23
2018-11-06T16:22:08.574Z,17.73
2018-11-06T16:24:38.626Z,17.10
2018-11-06T16:27:06.990Z,17.97
2018-11-06T16:29:35.180Z,16.47
2018-11-06T16:32:03.314Z,17.53
2018-11-06T16:34:31.450Z,16.60
2018-11-06T16:36:59.727Z,17.13
2018-11-06T16:39:29.595Z,20.43
2018-11-06T16:41:57.914Z,19.50
2018-11-06T16:44:26.358Z,19.50
2018-11-06T16:46:54.950Z,20.20
2018-11-06T16:49:23.164Z,21.60
2018-11-06T16:51:51.347Z,20.43
2018-11-06T16:54:19.846Z,19.40
2018-11-06T16:56:48.067Z,20.40
2018-11-06T16:59:16.178Z,20.93
2018-11-06T17:01:44.404Z,20.23
2018-11-06T17:04:13.176Z,20.53
2018-11-06T17:06:46.852Z,19.87
2018-11-06T17:09:16.568Z,21.43
2018-11-06T17:11:45.410Z,21.70
2018-11-06T17:14:13.837Z,22.80
2018-11-06T17:16:42.728Z,21.93
2018-11-06T17:19:12.294Z,21.83
2018-11-06T17:21:40.514Z,23.20
2018-11-06T17:24:08.656Z,24.33
2018-11-06T17:26:36.773Z,24.83
2018-11-06T17:29:05.726Z,22.90
2018-11-06T17:31:34.145Z,24.60
2018-11-06T17:34:02.659Z,23.33
2018-11-06T17:36:31.095Z,23.43
2018-11-06T17:38:59.506Z,24.10
2018-11-06T17:41:27.584Z,23.33
2018-11-06T17:43:56.452Z,25.17
2018-11-06T17:46:24.615Z,24.63
2018-11-06T17:48:53.472Z,25.20
2018-11-06T17:51:21.833Z,25.23
2018-11-06T17:53:50.037Z,25.77
2018-11-06T17:56:18.276Z,25.57
2018-11-06T17:58:46.452Z,24.27
2018-11-06T18:01:14.683Z,25.43
2018-11-06T18:03:43.193Z,24.43
2018-11-06T18:06:11.286Z,24.97
2018-11-06T18:08:39.815Z,25.40
2018-11-06T18:11:08.638Z,26.20
2018-11-06T18:13:37.764Z,23.67
2018-11-06T18:16:06.306Z,24.77
2018-11-06T18:18:35.156Z,24.50
2018-11-06T18:21:03.377Z,25.73
2018-11-06T18:23:31.645Z,26.60
2018-11-06T18:25:59.850Z,26.00
2018-11-06T18:28:28.062Z,26.33
2018-11-06T18:30:56.307Z,27.07
2018-11-06T18:33:25.511Z,26.13
2018-11-06T18:35:53.840Z,26.33
2018-11-06T18:38:22.841Z,27.50
2018-11-06T18:40:50.975Z,26.83
2018-11-06T18:43:19.116Z,26.03
2018-11-06T18:45:47.390Z,25.40
2018-11-06T18:48:15.783Z,27.40
2018-11-06T18:51:11.619Z,26.53
2018-11-06T18:53:40.566Z,25.63
2018-11-06T18:56:08.643Z,27.80
2018-11-06T18:58:37.834Z,29.03
2018-11-06T19:01:06.024Z,27.80
2018-11-06T19:03:35.248Z,28.03
2018-11-06T19:06:03.473Z,27.53
2018-11-06T19:08:32.516Z,29.57
2018-11-06T19:11:01.363Z,29.27
2018-11-06T19:13:29.700Z,29.43
2018-11-06T19:15:58.343Z,26.57
2018-11-06T19:18:26.522Z,29.90
2018-11-06T19:20:54.621Z,29.07
2018-11-06T19:23:23.725Z,28.73
2018-11-06T19:25:51.814Z,30.40
2018-11-06T19:28:19.904Z,28.63
2018-11-06T19:30:48.055Z,29.27
2018-11-06T19:33:16.188Z,30.57
2018-11-06T19:35:44.390Z,29.33
2018-11-06T19:38:12.519Z,29.50
2018-11-06T19:40:40.774Z,29.20
2018-11-06T19:43:08.846Z,29.13
2018-11-06T19:45:36.984Z,31.20
2018-11-06T19:48:05.498Z,30.33
2018-11-06T19:50:33.634Z,28.83
2018-11-06T19:53:01.846Z,30.57
2018-11-06T19:55:30.053Z,31.07
2018-11-06T19:57:58.187Z,31.90
2018-11-06T20:00:26.349Z,33.00
2018-11-06T20:02:54.578Z,32.33
2018-11-06T20:05:22.793Z,31.00
2018-11-06T20:07:51.527Z,29.97
2018-11-06T20:10:22.257Z,30.80
2018-11-06T20:12:51.425Z,31.23
2018-11-06T20:15:19.718Z,31.27
2018-11-06T20:17:48.821Z,31.60
2018-11-06T20:20:20.439Z,27.70
2018-11-06T20:22:48.635Z,31.27
2018-11-06T20:25:16.782Z,31.03
2018-11-06T20:27:45.327Z,32.03
2018-11-06T20:30:16.341Z,31.30
2018-11-06T20:32:44.555Z,30.87
2018-11-06T20:35:13.193Z,30.63
2018-11-06T20:37:41.418Z,32.30
2018-11-06T20:40:13.191Z,31.47
2018-11-06T20:42:42.036Z,34.43
2018-11-06T20:45:12.102Z,31.77
2018-11-06T20:47:40.463Z,33.70
2018-11-06T20:50:11.699Z,33.97
2018-11-06T20:52:39.997Z,32.20
2018-11-06T20:55:08.848Z,29.97
2018-11-06T20:57:36.950Z,34.97
2018-11-06T21:00:08.241Z,31.17
2018-11-06T21:02:36.336Z,32.57
2018-11-06T21:05:04.947Z,32.97
2018-11-06T21:07:33.320Z,29.80
2018-11-06T21:10:01.466Z,30.13
2018-11-06T21:12:29.736Z,32.87
2018-11-06T21:14:57.884Z,30.90
2018-11-06T21:17:26.981Z,33.00
2018-11-06T21:19:55.211Z,33.27
2018-11-06T21:22:23.287Z,31.60
2018-11-06T21:24:51.543Z,35.17
2018-11-06T21:27:19.757Z,33.47
2018-11-06T21:29:47.945Z,33.90
2018-11-06T21:32:16.188Z,31.73
2018-11-06T21:34:44.371Z,34.47
2018-11-06T21:37:12.618Z,31.87
2018-11-06T21:39:40.759Z,32.97
2018-11-06T21:42:09.175Z,32.30
2018-11-06T21:44:37.645Z,33.80
2018-11-06T21:47:05.783Z,32.67
2018-11-06T21:49:33.959Z,30.77
2018-11-06T21:52:02.234Z,32.97
2018-11-06T21:54:30.455Z,30.43
2018-11-06T21:56:59.649Z,33.80
2018-11-06T21:59:28.090Z,35.10
2018-11-06T22:01:57.007Z,35.73
2018-11-06T22:04:25.417Z,33.73
2018-11-06T22:06:53.581Z,31.80
2018-11-06T22:09:21.943Z,31.67
2018-11-06T22:11:50.061Z,32.57
2018-11-06T22:14:18.344Z,31.37
2018-11-06T22:16:46.739Z,34.93
2018-11-06T22:19:15.260Z,34.43
2018-11-06T22:21:43.751Z,33.53
2018-11-06T22:24:11.972Z,34.13
2018-11-06T22:26:40.160Z,32.87
2018-11-06T22:29:08.612Z,33.73
2018-11-06T22:31:37.278Z,32.37
2018-11-06T22:34:05.748Z,40.47
2018-11-06T22:36:34.046Z,34.17
2018-11-06T22:39:02.370Z,34.27
2018-11-06T22:41:30.803Z,33.67
2018-11-06T22:43:59.076Z,33.67
2018-11-06T22:46:27.386Z,30.73
2018-11-06T22:48:55.571Z,32.47
2018-11-06T22:51:24.058Z,33.90
2018-11-06T22:53:52.480Z,34.23
2018-11-06T22:56:20.871Z,32.67
2018-11-06T22:58:49.006Z,35.80
2018-11-06T23:01:22.822Z,36.60
2018-11-06T23:03:52.765Z,33.57
2018-11-06T23:06:21.542Z,32.97
2018-11-06T23:08:49.692Z,38.50
2018-11-06T23:11:18.522Z,35.43
2018-11-06T23:13:46.908Z,35.57
2018-11-06T23:16:15.173Z,34.73
2018-11-06T23:18:43.306Z,34.37
2018-11-06T23:21:11.448Z,33.33
2018-11-06T23:23:39.598Z,34.13
2018-11-06T23:26:08.080Z,31.60
2018-11-06T23:28:36.326Z,33.27
2018-11-06T23:31:04.821Z,34.63
2018-11-06T23:33:32.990Z,32.87
2018-11-06T23:36:01.398Z,33.07
2018-11-06T23:38:29.763Z,36.50
2018-11-06T23:40:58.449Z,33.20
2018-11-06T23:43:26.752Z,37.07
2018-11-06T23:45:55.063Z,34.27
2018-11-06T23:48:23.487Z,33.77
2018-11-06T23:50:51.923Z,32.77
2018-11-06T23:53:20.419Z,35.33
2018-11-06T23:55:48.553Z,36.17
2018-11-06T23:58:16.851Z,37.13
